Time;durP1;ratioP1;P1;durP2;ratioP2;P2;SDS_P1;SDS_P2;PMS_P1;PMS_P2;Temp;Humidity;BMP_temperature;BMP_pressure;BME280_temperature;BME280_humidity;BME280_pressure;Samples;Min_cycle;Max_cycle;Signal;HPM_P1;HPM_P2
2022/05/08 00:00:01;;;;;;;27.30;25.30;;;;;;;;;;5055174;28;20430;-95
2022/05/08 00:02:28;;;;;;;28.10;26.00;;;;;;;;;;5054366;28;20932;-94
2022/05/08 00:04:56;;;;;;;29.50;27.00;;;;;;;;;;5070251;28;20418;-95
2022/05/08 00:07:25;;;;;;;28.00;25.90;;;;;;;;;;5055211;28;20426;-94
2022/05/08 00:09:52;;;;;;;27.67;25.57;;;;;;;;;;5069876;28;20446;-95
2022/05/08 00:12:20;;;;;;;29.13;27.00;;;;;;;;;;5069903;28;20923;-95
2022/05/08 00:14:47;;;;;;;28.83;26.53;;;;;;;;;;5054483;28;20429;-95
2022/05/08 00:17:15;;;;;;;28.30;25.90;;;;;;;;;;5054670;28;20406;-95
2022/05/08 00:19:43;;;;;;;29.30;26.80;;;;;;;;;;5054390;28;20439;-95
2022/05/08 00:22:10;;;;;;;28.43;26.33;;;;;;;;;;5054359;28;21265;-95
2022/05/08 00:24:39;;;;;;;27.93;25.83;;;;;;;;;;5054866;28;20454;-95
2022/05/08 00:27:07;;;;;;;26.40;24.50;;;;;;;;;;5054078;28;20793;-95
2022/05/08 00:29:34;;;;;;;28.17;25.70;;;;;;;;;;5054425;28;20418;-95
2022/05/08 00:32:01;;;;;;;25.30;23.50;;;;;;;;;;5054295;28;20847;-95
2022/05/08 00:34:29;;;;;;;25.80;23.90;;;;;;;;;;5053819;28;20757;-95
2022/05/08 00:36:56;;;;;;;27.17;25.07;;;;;;;;;;5054018;28;20424;-95
2022/05/08 00:39:24;;;;;;;24.00;22.00;;;;;;;;;;5054744;28;20418;-95
2022/05/08 00:41:52;;;;;;;25.47;23.70;;;;;;;;;;5069808;28;20459;-95
2022/05/08 00:44:20;;;;;;;26.27;24.07;;;;;;;;;;5053364;28;20472;-95
2022/05/08 00:46:48;;;;;;;27.20;24.87;;;;;;;;;;5054404;28;20439;-95
2022/05/08 00:49:16;;;;;;;26.93;23.97;;;;;;;;;;5053254;28;20827;-95
2022/05/08 00:51:47;;;;;;;26.83;24.47;;;;;;;;;;5053960;28;20430;-94
2022/05/08 00:54:15;;;;;;;26.77;24.33;;;;;;;;;;5053983;28;20521;-95
2022/05/08 00:56:42;;;;;;;24.90;22.77;;;;;;;;;;5053688;28;20565;-95
2022/05/08 00:59:11;;;;;;;25.07;23.17;;;;;;;;;;5053578;28;20475;-96
2022/05/08 01:01:39;;;;;;;26.17;23.87;;;;;;;;;;5054237;28;20417;-95
2022/05/08 01:04:06;;;;;;;25.07;22.93;;;;;;;;;;5073440;28;20432;-95
2022/05/08 01:06:34;;;;;;;24.67;22.97;;;;;;;;;;5073881;28;20451;-95
2022/05/08 01:09:01;;;;;;;24.33;22.07;;;;;;;;;;5057774;28;20516;-95
2022/05/08 01:11:29;;;;;;;22.80;21.40;;;;;;;;;;5058247;28;20450;-96
2022/05/08 01:13:56;;;;;;;23.53;21.77;;;;;;;;;;5058348;28;20479;-95
2022/05/08 01:16:25;;;;;;;23.00;21.40;;;;;;;;;;5073343;28;20466;-95
2022/05/08 01:18:53;;;;;;;24.93;22.40;;;;;;;;;;5057869;28;20459;-95
2022/05/08 01:21:24;;;;;;;22.30;20.60;;;;;;;;;;5057955;28;20415;-95
2022/05/08 01:23:53;;;;;;;22.83;21.33;;;;;;;;;;5057370;28;20422;-95
2022/05/08 01:26:23;;;;;;;25.57;22.60;;;;;;;;;;5058117;28;20524;-96
2022/05/08 01:28:50;;;;;;;22.93;21.30;;;;;;;;;;5057541;28;20435;-95
2022/05/08 01:31:18;;;;;;;22.07;20.50;;;;;;;;;;5057720;28;20817;-94
2022/05/08 01:33:45;;;;;;;21.53;20.13;;;;;;;;;;5057504;28;20494;-95
2022/05/08 01:36:12;;;;;;;22.37;20.17;;;;;;;;;;5057398;28;20483;-95
2022/05/08 01:38:40;;;;;;;23.87;22.07;;;;;;;;;;5057741;28;20464;-96
2022/05/08 01:41:08;;;;;;;23.43;21.10;;;;;;;;;;5057805;28;20839;-95
2022/05/08 01:43:36;;;;;;;22.47;20.73;;;;;;;;;;5057753;28;20902;-96
2022/05/08 01:46:04;;;;;;;23.90;21.70;;;;;;;;;;5057816;28;20418;-95
2022/05/08 01:48:30;;;;;;;22.93;20.80;;;;;;;;;;5057232;28;20913;-95
2022/05/08 01:50:58;;;;;;;30.67;21.27;;;;;;;;;;5057687;28;20466;-96
2022/05/08 01:53:26;;;;;;;21.17;19.67;;;;;;;;;;5057531;28;20461;-95
2022/05/08 01:55:55;;;;;;;21.93;20.43;;;;;;;;;;5073046;28;20435;-96
2022/05/08 01:58:25;;;;;;;21.97;20.50;;;;;;;;;;5055888;28;20460;-95
2022/05/08 02:00:53;;;;;;;22.03;20.50;;;;;;;;;;5071565;28;20451;-95
2022/05/08 02:03:21;;;;;;;22.57;20.63;;;;;;;;;;5055920;28;20561;-96
2022/05/08 02:05:49;;;;;;;22.50;20.97;;;;;;;;;;5055992;28;20854;-95
2022/05/08 02:08:16;;;;;;;22.63;20.80;;;;;;;;;;5056256;28;20513;-95
2022/05/08 02:10:44;;;;;;;22.37;20.63;;;;;;;;;;5071411;28;20862;-95
2022/05/08 02:13:12;;;;;;;21.20;19.93;;;;;;;;;;5055395;28;20478;-96
2022/05/08 02:15:41;;;;;;;22.20;20.53;;;;;;;;;;5071778;28;20452;-96
2022/05/08 02:18:10;;;;;;;21.80;20.17;;;;;;;;;;5056062;28;20417;-96
2022/05/08 02:20:39;;;;;;;22.30;20.50;;;;;;;;;;5056173;28;20782;-96
2022/05/08 02:23:06;;;;;;;21.40;19.30;;;;;;;;;;5055511;28;20460;-96
2022/05/08 02:25:34;;;;;;;21.17;19.57;;;;;;;;;;5055498;28;20464;-95
2022/05/08 02:28:01;;;;;;;22.20;20.33;;;;;;;;;;5055588;28;20456;-95
2022/05/08 02:30:29;;;;;;;20.90;19.47;;;;;;;;;;5055183;28;20455;-95
2022/05/08 02:32:57;;;;;;;25.60;19.73;;;;;;;;;;5055945;28;20517;-95
2022/05/08 02:35:25;;;;;;;22.53;20.47;;;;;;;;;;5055818;28;20442;-96
2022/05/08 02:37:54;;;;;;;21.60;19.60;;;;;;;;;;5055728;28;20443;-95
2022/05/08 02:40:22;;;;;;;20.83;19.10;;;;;;;;;;5055492;28;20995;-95
2022/05/08 02:42:49;;;;;;;21.43;19.50;;;;;;;;;;5055111;28;20941;-95
2022/05/08 02:45:17;;;;;;;22.33;20.00;;;;;;;;;;5055246;28;20908;-95
2022/05/08 02:47:44;;;;;;;20.33;19.07;;;;;;;;;;5055092;28;20486;-96
2022/05/08 02:50:13;;;;;;;21.97;20.10;;;;;;;;;;5055355;28;20451;-96
2022/05/08 02:52:41;;;;;;;21.60;19.90;;;;;;;;;;5054982;28;20465;-96
2022/05/08 03:00:40;;;;;;;21.80;19.93;;;;;;;;;;5056694;28;20224;-96
2022/05/08 03:03:07;;;;;;;23.13;20.83;;;;;;;;;;5055615;28;20445;-95
2022/05/08 03:05:37;;;;;;;21.47;20.00;;;;;;;;;;5055933;28;20435;-95
2022/05/08 03:08:05;;;;;;;20.83;18.90;;;;;;;;;;5056210;28;20455;-95
2022/05/08 03:11:25;;;;;;;20.13;18.70;;;;;;;;;;5055798;28;20569;-95
2022/05/08 03:13:21;;;;;;;21.33;19.60;;;;;;;;;;5055646;28;20461;-96
2022/05/08 03:15:49;;;;;;;21.60;20.07;;;;;;;;;;5055767;28;20452;-95
2022/05/08 03:18:16;;;;;;;22.70;20.50;;;;;;;;;;5055860;28;20546;-96
2022/05/08 03:20:45;;;;;;;21.10;19.70;;;;;;;;;;5055974;28;20936;-96
2022/05/08 03:23:14;;;;;;;20.53;19.13;;;;;;;;;;5055993;28;20471;-95
2022/05/08 03:25:42;;;;;;;19.63;18.50;;;;;;;;;;5054972;28;20503;-95
2022/05/08 03:28:10;;;;;;;22.17;20.57;;;;;;;;;;5055475;28;20454;-95
2022/05/08 03:30:37;;;;;;;20.70;19.20;;;;;;;;;;5056058;28;20431;-95
2022/05/08 03:33:06;;;;;;;20.67;18.97;;;;;;;;;;5055390;28;20450;-96
2022/05/08 03:35:34;;;;;;;20.70;19.40;;;;;;;;;;5055240;28;20486;-95
2022/05/08 03:38:02;;;;;;;20.03;18.80;;;;;;;;;;5055644;28;20848;-95
2022/05/08 03:40:30;;;;;;;21.83;20.30;;;;;;;;;;5056302;28;20417;-95
2022/05/08 03:42:57;;;;;;;21.90;19.97;;;;;;;;;;5057244;28;20426;-94
2022/05/08 03:45:25;;;;;;;20.63;19.23;;;;;;;;;;5056961;28;20440;-95
2022/05/08 03:47:53;;;;;;;20.10;18.60;;;;;;;;;;5070641;28;20926;-95
2022/05/08 03:50:20;;;;;;;22.17;20.27;;;;;;;;;;5054956;28;20424;-95
2022/05/08 03:52:47;;;;;;;22.87;21.20;;;;;;;;;;5055024;28;20458;-94
2022/05/08 03:55:17;;;;;;;23.87;21.60;;;;;;;;;;5054671;28;20437;-95
2022/05/08 03:57:44;;;;;;;21.73;20.30;;;;;;;;;;5054559;28;20461;-95
2022/05/08 04:00:12;;;;;;;21.17;19.73;;;;;;;;;;5054869;28;20425;-94
2022/05/08 04:02:40;;;;;;;21.67;20.20;;;;;;;;;;5054627;28;20422;-94
2022/05/08 04:05:08;;;;;;;21.90;19.67;;;;;;;;;;5054923;28;20445;-95
2022/05/08 04:07:35;;;;;;;21.83;20.23;;;;;;;;;;5054834;28;20439;-94
2022/05/08 04:10:03;;;;;;;20.23;18.83;;;;;;;;;;5070171;28;20463;-94
2022/05/08 04:12:32;;;;;;;20.87;19.67;;;;;;;;;;5054888;28;20815;-95
2022/05/08 04:15:00;;;;;;;20.10;18.53;;;;;;;;;;5054959;28;20794;-95
2022/05/08 04:17:28;;;;;;;19.63;18.43;;;;;;;;;;5054504;28;20449;-95
2022/05/08 04:19:55;;;;;;;21.43;19.77;;;;;;;;;;5054474;28;20446;-94
2022/05/08 04:25:10;;;;;;;22.00;19.80;;;;;;;;;;5054215;28;20921;-95
2022/05/08 04:27:39;;;;;;;19.83;18.60;;;;;;;;;;5054313;28;20459;-94
2022/05/08 04:30:07;;;;;;;21.63;20.10;;;;;;;;;;5054725;28;20537;-94
2022/05/08 04:32:34;;;;;;;20.30;18.80;;;;;;;;;;5053767;28;20451;-96
2022/05/08 04:35:02;;;;;;;21.70;19.67;;;;;;;;;;5054510;28;20827;-94
2022/05/08 04:37:30;;;;;;;22.53;20.80;;;;;;;;;;5069614;28;20433;-94
2022/05/08 04:39:57;;;;;;;22.20;20.67;;;;;;;;;;5054290;28;20808;-94
2022/05/08 04:42:26;;;;;;;21.30;19.80;;;;;;;;;;5054016;28;20875;-94
2022/05/08 04:44:55;;;;;;;22.73;20.60;;;;;;;;;;5054254;28;20447;-94
2022/05/08 04:47:22;;;;;;;22.27;20.23;;;;;;;;;;5054118;28;20438;-94
2022/05/08 04:49:49;;;;;;;21.57;20.00;;;;;;;;;;5054334;28;20442;-94
2022/05/08 04:52:17;;;;;;;22.30;20.70;;;;;;;;;;5054220;28;20429;-94
2022/05/08 04:54:44;;;;;;;21.47;19.70;;;;;;;;;;5069770;28;20509;-95
2022/05/08 04:57:12;;;;;;;20.73;19.23;;;;;;;;;;5054008;28;20482;-94
2022/05/08 04:59:39;;;;;;;21.47;19.73;;;;;;;;;;5069582;28;20464;-94
2022/05/08 05:02:09;;;;;;;23.23;20.90;;;;;;;;;;5054011;28;20513;-94
2022/05/08 05:04:36;;;;;;;20.20;19.10;;;;;;;;;;5053716;28;20417;-94
2022/05/08 05:07:04;;;;;;;22.70;20.67;;;;;;;;;;5053753;28;20432;-95
2022/05/08 05:09:31;;;;;;;23.37;21.53;;;;;;;;;;5054254;28;20489;-94
2022/05/08 05:11:58;;;;;;;22.43;21.00;;;;;;;;;;5053568;28;20445;-94
2022/05/08 05:14:26;;;;;;;22.43;20.57;;;;;;;;;;5053856;28;20457;-94
2022/05/08 05:16:53;;;;;;;20.67;19.47;;;;;;;;;;5053869;28;20474;-94
2022/05/08 05:19:22;;;;;;;22.30;20.80;;;;;;;;;;5053695;28;20443;-94
2022/05/08 05:21:49;;;;;;;22.77;21.17;;;;;;;;;;5053636;28;20440;-96
2022/05/08 05:24:16;;;;;;;24.13;22.53;;;;;;;;;;5053568;28;20409;-96
2022/05/08 05:26:44;;;;;;;24.00;22.50;;;;;;;;;;5069312;28;20554;-94
2022/05/08 05:29:11;;;;;;;22.67;20.27;;;;;;;;;;5069138;28;20459;-94
2022/05/08 05:31:39;;;;;;;22.57;21.27;;;;;;;;;;5069400;28;20451;-96
2022/05/08 05:34:06;;;;;;;21.63;20.33;;;;;;;;;;5052074;28;20480;-96
2022/05/08 05:36:35;;;;;;;22.30;20.50;;;;;;;;;;5053616;28;20975;-96
2022/05/08 05:39:02;;;;;;;22.47;21.00;;;;;;;;;;5052697;28;20948;-96
2022/05/08 05:41:30;;;;;;;21.10;19.70;;;;;;;;;;5053065;28;20474;-95
2022/05/08 05:43:58;;;;;;;22.63;21.00;;;;;;;;;;5053515;28;20442;-95
2022/05/08 05:49:10;;;;;;;21.27;19.83;;;;;;;;;;5055879;28;20401;-96
2022/05/08 05:51:38;;;;;;;21.10;19.70;;;;;;;;;;5057515;28;20940;-96
2022/05/08 05:54:06;;;;;;;24.27;20.53;;;;;;;;;;5057112;28;20461;-95
2022/05/08 05:56:33;;;;;;;22.20;20.57;;;;;;;;;;5056932;28;20461;-95
2022/05/08 05:59:01;;;;;;;21.57;20.17;;;;;;;;;;5057130;28;20467;-95
2022/05/08 06:01:28;;;;;;;21.97;20.23;;;;;;;;;;5056882;28;20429;-95
2022/05/08 06:03:55;;;;;;;21.77;20.20;;;;;;;;;;5056846;28;20485;-96
2022/05/08 06:06:23;;;;;;;21.50;20.00;;;;;;;;;;5056837;28;20471;-95
2022/05/08 06:08:51;;;;;;;20.90;19.40;;;;;;;;;;5056695;28;20438;-96
2022/05/08 06:11:19;;;;;;;21.03;19.73;;;;;;;;;;5056869;28;20940;-96
2022/05/08 06:13:46;;;;;;;21.37;19.83;;;;;;;;;;5056790;28;21110;-96
2022/05/08 06:16:14;;;;;;;21.33;19.60;;;;;;;;;;5056948;28;20517;-95
2022/05/08 06:18:41;;;;;;;20.90;19.20;;;;;;;;;;5056695;28;20473;-96
2022/05/08 06:21:09;;;;;;;21.87;20.17;;;;;;;;;;5056979;28;20451;-94
2022/05/08 06:23:36;;;;;;;20.80;19.47;;;;;;;;;;5056555;28;20464;-94
2022/05/08 06:26:05;;;;;;;20.30;18.90;;;;;;;;;;5056553;28;20905;-95
2022/05/08 06:28:32;;;;;;;21.37;19.63;;;;;;;;;;5056659;28;20460;-94
2022/05/08 06:31:00;;;;;;;21.00;19.70;;;;;;;;;;5071913;28;20505;-94
2022/05/08 06:33:27;;;;;;;20.73;19.33;;;;;;;;;;5055987;28;20428;-93
2022/05/08 06:35:55;;;;;;;21.33;19.93;;;;;;;;;;5056479;28;20437;-94
2022/05/08 06:38:22;;;;;;;21.47;19.83;;;;;;;;;;5056063;28;20431;-94
2022/05/08 06:40:49;;;;;;;21.60;20.00;;;;;;;;;;5056254;28;20425;-95
2022/05/08 06:43:18;;;;;;;20.40;19.20;;;;;;;;;;5056435;28;20410;-95
2022/05/08 06:45:45;;;;;;;21.20;19.60;;;;;;;;;;5056515;28;20433;-93
2022/05/08 06:48:13;;;;;;;20.63;19.43;;;;;;;;;;5055813;28;20419;-93
2022/05/08 06:50:40;;;;;;;21.17;19.50;;;;;;;;;;5055690;28;20493;-92
2022/05/08 06:53:07;;;;;;;21.40;19.67;;;;;;;;;;5055702;28;20458;-93
2022/05/08 06:55:35;;;;;;;20.70;19.50;;;;;;;;;;5055843;28;20487;-94
2022/05/08 06:58:03;;;;;;;22.23;20.27;;;;;;;;;;5055483;28;21000;-94
2022/05/08 07:03:16;;;;;;;20.07;18.93;;;;;;;;;;5055596;28;20422;-95
2022/05/08 07:05:45;;;;;;;20.50;19.30;;;;;;;;;;5055894;28;20451;-93
2022/05/08 07:08:13;;;;;;;21.03;19.63;;;;;;;;;;5055744;28;20436;-93
2022/05/08 07:10:40;;;;;;;21.33;19.27;;;;;;;;;;5071073;28;20514;-93
2022/05/08 07:13:08;;;;;;;21.63;20.30;;;;;;;;;;5055777;28;20436;-93
2022/05/08 07:15:37;;;;;;;20.67;19.47;;;;;;;;;;5038443;28;20531;-93
2022/05/08 07:18:04;;;;;;;22.23;20.33;;;;;;;;;;5055765;28;20474;-94
2022/05/08 07:20:32;;;;;;;21.83;20.10;;;;;;;;;;5055308;28;20568;-92
2022/05/08 07:22:59;;;;;;;20.20;19.10;;;;;;;;;;5055361;28;20414;-92
2022/05/08 07:25:26;;;;;;;21.33;19.83;;;;;;;;;;5055425;28;20418;-91
2022/05/08 07:27:53;;;;;;;20.60;19.40;;;;;;;;;;5055346;28;20439;-93
2022/05/08 07:30:21;;;;;;;21.80;20.00;;;;;;;;;;5055287;28;20989;-93
2022/05/08 07:32:50;;;;;;;21.33;20.13;;;;;;;;;;5055110;28;20464;-86
2022/05/08 07:38:03;;;;;;;21.60;20.00;;;;;;;;;;5055259;28;20428;-94
2022/05/08 07:40:31;;;;;;;20.63;19.30;;;;;;;;;;5070536;28;20530;-93
2022/05/08 07:42:58;;;;;;;21.97;20.10;;;;;;;;;;5055220;28;20459;-93
2022/05/08 07:45:26;;;;;;;21.53;19.90;;;;;;;;;;5055206;28;20784;-94
2022/05/08 07:47:55;;;;;;;20.60;19.50;;;;;;;;;;5054888;28;20439;-95
2022/05/08 07:50:23;;;;;;;22.40;20.70;;;;;;;;;;5054597;28;20431;-95
2022/05/08 07:52:51;;;;;;;23.80;21.80;;;;;;;;;;5054771;28;20442;-95
2022/05/08 07:55:18;;;;;;;22.03;20.53;;;;;;;;;;5054811;28;20490;-95
2022/05/08 07:57:45;;;;;;;23.23;21.50;;;;;;;;;;5054538;28;20446;-95
2022/05/08 08:00:13;;;;;;;20.67;19.17;;;;;;;;;;5054669;28;20428;-95
2022/05/08 08:02:40;;;;;;;21.83;20.10;;;;;;;;;;5054782;28;20451;-95
2022/05/08 08:05:10;;;;;;;21.73;20.60;;;;;;;;;;5054706;28;20447;-94
2022/05/08 08:07:37;;;;;;;22.27;20.93;;;;;;;;;;5054815;28;20482;-95
2022/05/08 08:10:05;;;;;;;21.80;20.40;;;;;;;;;;5054394;28;20495;-95
2022/05/08 08:12:33;;;;;;;21.63;20.23;;;;;;;;;;5054346;28;20438;-94
2022/05/08 08:15:00;;;;;;;20.93;19.57;;;;;;;;;;5053572;28;20487;-95
2022/05/08 08:17:28;;;;;;;21.37;19.97;;;;;;;;;;5054419;28;20466;-95
2022/05/08 08:19:55;;;;;;;20.80;19.27;;;;;;;;;;5053088;28;20417;-95
2022/05/08 08:22:24;;;;;;;20.57;19.00;;;;;;;;;;5054398;28;20448;-94
2022/05/08 08:24:51;;;;;;;21.97;20.40;;;;;;;;;;5054230;28;20455;-94
2022/05/08 08:27:19;;;;;;;20.87;19.57;;;;;;;;;;5069985;28;20439;-95
2022/05/08 08:29:47;;;;;;;21.63;20.10;;;;;;;;;;5069628;28;20418;-95
2022/05/08 08:32:14;;;;;;;21.30;20.00;;;;;;;;;;5054364;28;20422;-96
2022/05/08 08:34:42;;;;;;;21.77;20.37;;;;;;;;;;5054456;28;20457;-96
2022/05/08 08:37:10;;;;;;;21.00;19.60;;;;;;;;;;5053933;28;20414;-89
2022/05/08 08:39:39;;;;;;;21.90;20.50;;;;;;;;;;5054316;28;20899;-94
2022/05/08 08:42:11;;;;;;;21.03;19.80;;;;;;;;;;5053978;28;20427;-93
2022/05/08 08:50:09;;;;;;;22.07;20.57;;;;;;;;;;5053951;28;20430;-94
2022/05/08 08:52:36;;;;;;;21.50;20.30;;;;;;;;;;5054293;28;20410;-95
2022/05/08 08:55:07;;;;;;;21.70;20.30;;;;;;;;;;5053933;28;20472;-95
2022/05/08 08:57:34;;;;;;;21.47;19.90;;;;;;;;;;5053660;28;20485;-93
2022/05/08 09:00:01;;;;;;;22.60;20.97;;;;;;;;;;5053919;28;20479;-93
2022/05/08 09:02:29;;;;;;;21.90;20.60;;;;;;;;;;5053704;28;20443;-94
2022/05/08 09:04:57;;;;;;;21.97;20.47;;;;;;;;;;5069246;28;20487;-93
2022/05/08 09:07:40;;;;;;;22.77;20.90;;;;;;;;;;5053879;28;20477;-85
2022/05/08 09:10:10;;;;;;;21.33;19.83;;;;;;;;;;5053662;28;20463;-91
2022/05/08 09:12:37;;;;;;;21.93;20.43;;;;;;;;;;5053988;28;20798;-92
2022/05/08 09:15:24;;;;;;;23.10;21.70;;;;;;;;;;5053736;28;20472;-91
2022/05/08 09:17:52;;;;;;;21.43;20.23;;;;;;;;;;5053234;28;21077;-88
2022/05/08 09:20:40;;;;;;;22.80;21.50;;;;;;;;;;5053756;28;20741;-87
2022/05/08 09:23:11;;;;;;;22.70;21.03;;;;;;;;;;5048547;28;20460;-93
2022/05/08 09:25:50;;;;;;;21.70;20.40;;;;;;;;;;5057705;28;20429;-90
2022/05/08 09:28:19;;;;;;;22.20;20.80;;;;;;;;;;5057637;28;20817;-90
2022/05/08 09:31:04;;;;;;;21.77;20.50;;;;;;;;;;5057569;28;20458;-89
2022/05/08 09:33:32;;;;;;;22.63;21.13;;;;;;;;;;5072917;28;20478;-88
2022/05/08 09:36:01;;;;;;;22.57;21.07;;;;;;;;;;5057411;28;20507;-88
2022/05/08 09:38:50;;;;;;;23.30;21.50;;;;;;;;;;5057140;28;20442;-86
2022/05/08 09:41:20;;;;;;;22.07;20.60;;;;;;;;;;5057160;28;20414;-92
2022/05/08 09:43:48;;;;;;;22.30;21.00;;;;;;;;;;5057254;28;20406;-92
2022/05/08 09:46:15;;;;;;;22.47;21.17;;;;;;;;;;5057261;28;20426;-87
2022/05/08 09:48:43;;;;;;;22.43;21.13;;;;;;;;;;5056554;28;20826;-85
2022/05/08 09:51:11;;;;;;;23.87;21.73;;;;;;;;;;5056307;28;20467;-84
2022/05/08 09:53:39;;;;;;;22.80;21.27;;;;;;;;;;5056487;28;20411;-85
2022/05/08 09:56:07;;;;;;;22.43;20.53;;;;;;;;;;5063110;28;20495;-91
2022/05/08 09:58:38;;;;;;;21.43;20.23;;;;;;;;;;5055829;28;20417;-88
2022/05/08 10:01:05;;;;;;;23.10;21.60;;;;;;;;;;5057124;28;20435;-87
2022/05/08 10:03:33;;;;;;;22.80;21.13;;;;;;;;;;5057741;28;20431;-87
2022/05/08 10:06:01;;;;;;;23.37;21.20;;;;;;;;;;5057359;28;20438;-89
2022/05/08 10:08:29;;;;;;;23.47;21.80;;;;;;;;;;5057270;28;20426;-89
2022/05/08 10:13:56;;;;;;;21.90;20.70;;;;;;;;;;5056557;28;20789;-92
2022/05/08 10:16:42;;;;;;;22.30;21.00;;;;;;;;;;5056193;28;20476;-84
2022/05/08 10:19:24;;;;;;;23.20;21.63;;;;;;;;;;5055689;28;20489;-83
2022/05/08 10:22:06;;;;;;;22.20;20.70;;;;;;;;;;5039625;28;20487;-84
2022/05/08 10:24:35;;;;;;;23.80;21.90;;;;;;;;;;5051458;28;20513;-86
2022/05/08 10:27:14;;;;;;;22.97;21.57;;;;;;;;;;5074242;28;20512;-83
2022/05/08 10:29:43;;;;;;;23.87;22.37;;;;;;;;;;5075773;28;20756;-84
2022/05/08 10:32:13;;;;;;;22.73;21.30;;;;;;;;;;5075586;28;20434;-85
2022/05/08 10:34:43;;;;;;;23.33;21.67;;;;;;;;;;5075386;28;20434;-85
2022/05/08 10:37:29;;;;;;;23.70;21.90;;;;;;;;;;5076156;28;20443;-83
2022/05/08 10:39:57;;;;;;;22.90;21.50;;;;;;;;;;5075387;28;20536;-83
2022/05/08 10:42:44;;;;;;;22.90;21.30;;;;;;;;;;5075804;28;20439;-85
2022/05/08 10:45:33;;;;;;;22.97;21.53;;;;;;;;;;5075769;28;20489;-82
2022/05/08 10:48:04;;;;;;;22.83;21.43;;;;;;;;;;5072552;28;20511;-92
2022/05/08 10:50:31;;;;;;;23.33;21.97;;;;;;;;;;5076032;28;20483;-87
2022/05/08 10:52:59;;;;;;;24.27;22.57;;;;;;;;;;5076395;28;20421;-88
2022/05/08 10:55:26;;;;;;;23.00;21.60;;;;;;;;;;5070781;28;20511;-88
2022/05/08 10:57:54;;;;;;;22.87;21.33;;;;;;;;;;5055282;28;20453;-88
2022/05/08 11:00:23;;;;;;;22.70;21.10;;;;;;;;;;5055647;28;20414;-90
2022/05/08 11:02:51;;;;;;;21.87;20.60;;;;;;;;;;5056146;28;20439;-94
2022/05/08 11:05:21;;;;;;;23.97;22.13;;;;;;;;;;5056068;28;20471;-93
2022/05/08 11:07:52;;;;;;;23.00;21.67;;;;;;;;;;5055409;28;20914;-89
2022/05/08 11:10:23;;;;;;;24.50;22.30;;;;;;;;;;5055684;28;20445;-88
2022/05/08 11:13:00;;;;;;;23.77;22.27;;;;;;;;;;5054525;28;20451;-90
2022/05/08 11:15:27;;;;;;;22.77;21.10;;;;;;;;;;5054489;28;20997;-94
2022/05/08 11:18:07;;;;;;;22.50;21.10;;;;;;;;;;5055063;28;20494;-96
2022/05/08 11:20:37;;;;;;;22.83;21.30;;;;;;;;;;5055936;28;20444;-94
2022/05/08 11:23:05;;;;;;;23.93;22.43;;;;;;;;;;5056856;28;20452;-94
2022/05/08 11:25:33;;;;;;;22.47;20.97;;;;;;;;;;5056679;28;20496;-94
2022/05/08 11:28:01;;;;;;;22.63;21.07;;;;;;;;;;5056009;28;20485;-88
2022/05/08 11:30:32;;;;;;;23.23;21.73;;;;;;;;;;5055611;28;20819;-87
2022/05/08 11:36:06;;;;;;;21.30;20.10;;;;;;;;;;5056656;28;20527;-95
2022/05/08 11:38:34;;;;;;;21.63;20.33;;;;;;;;;;5057135;28;20555;-94
2022/05/08 11:41:02;;;;;;;22.40;20.80;;;;;;;;;;5056203;28;20437;-95
2022/05/08 11:43:43;;;;;;;23.37;21.97;;;;;;;;;;5055081;28;20418;-95
2022/05/08 11:46:12;;;;;;;22.20;20.67;;;;;;;;;;5056346;28;20445;-94
2022/05/08 11:48:41;;;;;;;22.70;21.10;;;;;;;;;;5056034;28;20542;-94
2022/05/08 11:51:11;;;;;;;22.23;20.73;;;;;;;;;;5055247;28;20418;-94
2022/05/08 11:53:45;;;;;;;23.40;21.80;;;;;;;;;;5056476;28;20884;-94
2022/05/08 11:56:26;;;;;;;21.83;20.47;;;;;;;;;;5056470;28;20486;-95
2022/05/08 11:58:53;;;;;;;22.30;20.87;;;;;;;;;;5055904;28;20447;-95
2022/05/08 12:01:24;;;;;;;23.20;21.33;;;;;;;;;;5055479;28;20437;-96
2022/05/08 12:03:52;;;;;;;22.50;20.93;;;;;;;;;;5055807;28;20426;-94
2022/05/08 12:06:21;;;;;;;21.40;20.20;;;;;;;;;;5055564;28;20453;-93
2022/05/08 12:08:49;;;;;;;23.67;22.30;;;;;;;;;;5055272;28;20509;-94
2022/05/08 12:11:35;;;;;;;23.27;21.67;;;;;;;;;;5055153;28;20970;-94
2022/05/08 12:14:03;;;;;;;22.93;21.30;;;;;;;;;;5055219;28;20448;-94
2022/05/08 12:16:31;;;;;;;23.10;21.50;;;;;;;;;;5054982;28;20487;-93
2022/05/08 12:19:15;;;;;;;22.73;20.93;;;;;;;;;;5054855;28;20450;-93
2022/05/08 12:21:45;;;;;;;22.40;21.10;;;;;;;;;;5055114;28;20480;-93
2022/05/08 12:24:13;;;;;;;23.07;21.40;;;;;;;;;;5055937;28;20470;-94
2022/05/08 12:26:40;;;;;;;22.80;21.40;;;;;;;;;;5057297;28;20418;-93
2022/05/08 12:29:09;;;;;;;22.67;21.27;;;;;;;;;;5058486;28;20430;-94
2022/05/08 12:31:37;;;;;;;22.70;21.20;;;;;;;;;;5057378;28;20456;-93
2022/05/08 12:34:06;;;;;;;23.77;22.37;;;;;;;;;;5054460;28;20447;-93
2022/05/08 12:36:34;;;;;;;23.03;21.73;;;;;;;;;;5054812;28;20472;-94
2022/05/08 12:39:03;;;;;;;23.10;21.60;;;;;;;;;;5056016;28;20448;-93
2022/05/08 12:41:33;;;;;;;22.43;21.03;;;;;;;;;;5055514;28;20437;-94
2022/05/08 12:44:00;;;;;;;24.50;22.73;;;;;;;;;;5054630;28;20427;-94
2022/05/08 12:46:28;;;;;;;22.53;21.23;;;;;;;;;;5055704;28;20517;-94
2022/05/08 12:49:02;;;;;;;22.90;21.60;;;;;;;;;;5054681;28;20461;-94
2022/05/08 12:51:29;;;;;;;23.10;21.60;;;;;;;;;;5054335;28;20409;-93
2022/05/08 12:53:57;;;;;;;22.60;21.23;;;;;;;;;;5055009;28;20420;-93
2022/05/08 12:56:26;;;;;;;23.30;21.90;;;;;;;;;;5055313;28;20502;-93
2022/05/08 13:01:38;;;;;;;22.73;21.40;;;;;;;;;;5059517;28;20405;-93
2022/05/08 13:04:06;;;;;;;23.50;22.00;;;;;;;;;;5061200;28;20920;-94
2022/05/08 13:06:34;;;;;;;22.13;20.93;;;;;;;;;;5062993;28;20458;-94
2022/05/08 13:09:01;;;;;;;23.27;21.70;;;;;;;;;;5057980;28;20557;-94
2022/05/08 13:11:31;;;;;;;23.83;22.13;;;;;;;;;;5059882;28;20432;-94
2022/05/08 13:13:58;;;;;;;22.83;21.30;;;;;;;;;;5058362;28;20422;-95
2022/05/08 13:16:26;;;;;;;23.83;22.23;;;;;;;;;;5058336;28;20461;-95
2022/05/08 13:18:53;;;;;;;23.37;21.77;;;;;;;;;;5057813;28;20446;-93
2022/05/08 13:21:20;;;;;;;22.77;21.40;;;;;;;;;;5059495;28;20439;-92
2022/05/08 13:23:50;;;;;;;23.73;22.30;;;;;;;;;;5059673;28;20787;-95
2022/05/08 13:26:17;;;;;;;22.40;21.20;;;;;;;;;;5070400;28;20433;-94
2022/05/08 13:28:46;;;;;;;23.20;21.70;;;;;;;;;;5079447;28;20416;-96
2022/05/08 13:31:15;;;;;;;23.27;21.97;;;;;;;;;;5079865;28;20421;-96
2022/05/08 13:33:42;;;;;;;22.80;21.60;;;;;;;;;;5078721;28;20436;-96
2022/05/08 13:36:11;;;;;;;23.23;21.93;;;;;;;;;;5079792;28;20459;-95
2022/05/08 13:38:39;;;;;;;24.03;22.53;;;;;;;;;;5078659;28;20425;-91
2022/05/08 13:41:07;;;;;;;23.53;22.13;;;;;;;;;;5077489;28;20468;-92
2022/05/08 13:43:35;;;;;;;23.13;21.83;;;;;;;;;;5076716;28;20417;-95
2022/05/08 13:46:03;;;;;;;23.00;21.80;;;;;;;;;;5078452;28;20433;-94
2022/05/08 13:48:31;;;;;;;23.57;21.97;;;;;;;;;;5078146;28;20432;-95
2022/05/08 13:50:59;;;;;;;24.57;22.80;;;;;;;;;;5077860;28;20433;-95
2022/05/08 13:53:27;;;;;;;23.97;22.40;;;;;;;;;;5077955;28;20429;-95
2022/05/08 13:55:56;;;;;;;23.13;21.83;;;;;;;;;;5078930;28;20467;-95
2022/05/08 13:58:24;;;;;;;24.13;22.43;;;;;;;;;;5079251;28;20492;-96
2022/05/08 14:00:52;;;;;;;24.50;22.87;;;;;;;;;;5077367;28;20417;-95
2022/05/08 14:03:22;;;;;;;22.83;21.33;;;;;;;;;;5078204;28;20427;-95
2022/05/08 14:05:49;;;;;;;24.20;22.80;;;;;;;;;;5079459;28;20904;-95
2022/05/08 14:08:17;;;;;;;24.70;22.63;;;;;;;;;;5082331;28;20999;-95
2022/05/08 14:10:45;;;;;;;24.23;22.30;;;;;;;;;;5079004;28;20443;-96
2022/05/08 14:13:12;;;;;;;22.73;21.40;;;;;;;;;;5079570;28;20428;-96
2022/05/08 14:15:41;;;;;;;23.53;22.00;;;;;;;;;;5078914;28;20474;-96
2022/05/08 14:18:09;;;;;;;22.67;21.37;;;;;;;;;;5078674;28;20449;-95
2022/05/08 14:20:38;;;;;;;23.60;22.30;;;;;;;;;;5078304;28;20549;-96
2022/05/08 14:23:05;;;;;;;24.43;22.67;;;;;;;;;;5079992;28;20567;-95
2022/05/08 14:25:33;;;;;;;23.97;22.67;;;;;;;;;;5078762;28;20410;-96
2022/05/08 14:28:01;;;;;;;23.63;22.10;;;;;;;;;;5078576;28;20440;-96
2022/05/08 14:30:30;;;;;;;24.40;22.90;;;;;;;;;;5078291;28;20460;-96
2022/05/08 14:38:25;;;;;;;23.70;22.30;;;;;;;;;;5079643;28;20456;-95
2022/05/08 14:40:53;;;;;;;24.20;22.80;;;;;;;;;;5079842;28;20946;-95
2022/05/08 14:43:22;;;;;;;23.73;22.40;;;;;;;;;;5081482;28;21015;-96
2022/05/08 14:45:49;;;;;;;25.10;23.60;;;;;;;;;;5081690;28;20441;-95
2022/05/08 14:48:17;;;;;;;24.13;22.70;;;;;;;;;;5077419;28;20506;-92
2022/05/08 14:50:46;;;;;;;24.50;23.10;;;;;;;;;;5075550;28;20948;-87
2022/05/08 14:53:15;;;;;;;24.60;23.10;;;;;;;;;;5076070;28;20433;-92
2022/05/08 14:55:43;;;;;;;24.60;23.30;;;;;;;;;;5075616;28;20417;-91
2022/05/08 14:58:12;;;;;;;24.50;22.97;;;;;;;;;;5076132;28;20581;-91
2022/05/08 15:00:40;;;;;;;25.20;23.70;;;;;;;;;;5075623;28;20418;-87